Aviation Digital Data Service (ADDS)

Output produced by TAFs form (1248 UTC 19 October 2017)
found at http://www.aviationweather.gov/adds/tafs/
 
KPDK 191153Z 00000KT 10SM CLR 07/05 A3030 RMK AO2 SLP262 T00670050 10094 20050 53006
KPDK 191120Z 1912/2012 06003KT P6SM SKC 
     FM191800 35004KT P6SM SKC 
     FM200000 00000KT P6SM SKC